Aérodrome :
LOGIN :

S'inscrire | Disclaimer

   EN    FR    IT 

 










Légende :    VFR   VFR Marginal   IFR   IFR Intensif   IFR Très Intensif
Visi : 
Plafond : 
>= 8 km
>= 3000ft
5 à 8 km
1000 à 3000 ft
1500m à 5 km
500 à 1000 ft
800 à 1500m
200 à 500 ft
< 800m
< 200 ft
Symboles :   Orages  Brouillard  Fortes neiges  Fortes précipitations  Vent > 20 kt
SIGMETs :   Divers  Orages  Givrage  Turbulence  Onde Orograph.  Cendres Volcan.






- Altitude de l'aérodrome : 53 ft
- Code IATA : AGP


LEMG - Malaga

DERNIER METAR :
  • 202030Z 28010KT CAVOK 33/09 Q1009 NOSIG

METARs EXPIRÉS :
  • 202000Z 29011KT CAVOK 32/10 Q1008 NOSIG
  • 201930Z VRB02KT CAVOK 28/18 Q1008 NOSIG
  • 201900Z 10004KT 060V130 CAVOK 29/18 Q1008 NOSIG
  • 201830Z 13003KT 100V160 CAVOK 29/18 Q1007 NOSIG
  • 201800Z 06002KT CAVOK 29/18 Q1007 NOSIG
  • 201730Z 06005KT 020V110 CAVOK 28/18 Q1007 NOSIG
  • 201700Z 04006KT 360V080 CAVOK 28/18 Q1007 NOSIG
  • 201630Z 05009KT 020V080 CAVOK 28/19 Q1008 NOSIG
  • 201600Z 03009KT CAVOK 32/19 Q1008 NOSIG

TAF TAF LEMG
Valide du 20 à 18h jusqu'au 21 à 18h UTC


201700Z 2018/2118 VRB02KT CAVOK TX33/2115Z TN22/2106Z
BECMG 2019/2021 29010KT



MET'MAP, la Météo Aéronautique d'un coup d'oeil ! - Copyright ORBIFLY Décembre 2007 - Disclaimer

ORBIFLY MET'MAP TEAM :

Programmation & Développement : Alexandra Zaïnal
Sur une idée originale de : Baudouin d'Aumeries
Soutien technique & logistique : Manuel Goepfert
Assistance : Marc-Olivier Méhu




SOURCES & CREDITS :

   NOAA